createdAt,value
2023-03-17T00:39:42.021Z,88446.00
2023-03-17T00:41:41.984Z,88439.00
2023-03-17T00:42:41.971Z,88433.00
2023-03-17T00:43:41.939Z,88431.00
2023-03-17T00:44:41.926Z,88437.00
2023-03-17T00:45:41.931Z,88433.00
2023-03-17T00:46:42.184Z,88427.00
2023-03-17T00:47:41.865Z,88431.00
2023-03-17T00:48:41.874Z,88423.00
2023-03-17T00:49:41.830Z,88427.00
2023-03-17T02:07:40.495Z,88413.00
2023-03-17T02:59:40.220Z,88395.00
2023-03-17T03:00:40.195Z,88392.00
2023-03-17T03:01:40.218Z,88384.00
2023-03-17T03:02:40.267Z,88393.00
2023-03-17T03:03:40.153Z,88392.00
2023-03-17T03:04:40.164Z,88390.00
2023-03-17T03:05:40.123Z,88393.00
2023-03-17T03:06:40.118Z,88392.00
2023-03-17T03:07:40.111Z,88405.00
2023-03-17T03:08:40.088Z,88401.00
2023-03-17T03:09:40.082Z,88403.00
2023-03-17T03:10:40.069Z,88409.00
2023-03-17T03:11:40.059Z,88401.00
2023-03-17T03:12:40.040Z,88399.00
2023-03-17T03:13:40.027Z,88397.00
2023-03-17T03:14:40.023Z,88409.00
2023-03-17T03:15:40.038Z,88417.00
2023-03-17T03:16:39.974Z,88405.00
2023-03-17T03:17:39.963Z,88386.00
2023-03-17T03:18:39.933Z,88407.00
2023-03-17T03:19:39.924Z,88413.00
2023-03-17T03:20:39.914Z,88413.00
2023-03-17T03:21:39.874Z,88419.00
2023-03-17T03:22:39.905Z,88423.00
2023-03-17T03:23:39.851Z,88405.00
2023-03-17T03:24:39.870Z,88415.00
2023-03-17T03:25:39.841Z,88417.00
2023-03-17T03:26:39.824Z,88421.00
2023-03-17T03:27:39.820Z,88403.00
2023-03-17T03:28:39.822Z,88411.00
2023-03-17T03:29:39.800Z,88407.00
2023-03-17T03:30:39.784Z,88405.00
2023-03-17T03:31:39.770Z,88415.00
2023-03-17T03:32:39.771Z,88407.00
2023-03-17T03:33:39.765Z,88427.00
2023-03-17T03:34:39.771Z,88409.00
2023-03-17T03:35:39.741Z,88411.00
2023-03-17T03:36:39.734Z,88413.00
2023-03-17T03:37:39.703Z,88413.00
2023-03-17T03:38:39.701Z,88421.00
2023-03-17T03:39:39.697Z,88419.00
2023-03-17T03:40:39.711Z,88419.00
2023-03-17T03:41:39.694Z,88407.00
2023-03-17T03:42:39.672Z,88425.00
2023-03-17T03:43:39.669Z,88413.00
2023-03-17T03:44:39.674Z,88407.00
2023-03-17T03:45:39.651Z,88411.00
2023-03-17T03:46:39.718Z,88409.00
2023-03-17T03:47:39.635Z,88399.00
2023-03-17T03:48:39.625Z,88407.00
2023-03-17T03:49:39.620Z,88411.00
2023-03-17T03:50:39.614Z,88401.00
2023-03-17T03:51:39.609Z,88409.00
2023-03-17T03:52:39.588Z,88403.00
2023-03-17T03:53:39.585Z,88401.00
2023-03-17T03:54:39.590Z,88395.00
2023-03-17T03:55:39.588Z,88405.00
2023-03-17T03:56:39.554Z,88403.00
2023-03-17T03:57:39.552Z,88397.00
2023-03-17T03:58:39.533Z,88407.00
2023-03-17T03:59:39.524Z,88409.00
2023-03-17T04:00:39.523Z,88403.00
2023-03-17T04:01:39.496Z,88403.00
2023-03-17T04:02:39.519Z,88399.00
2023-03-17T04:03:39.493Z,88397.00
2023-03-17T04:04:39.599Z,88392.00
2023-03-17T04:05:39.470Z,88399.00
2023-03-17T04:06:39.471Z,88403.00
2023-03-17T04:07:39.445Z,88403.00
2023-03-17T04:08:39.448Z,88395.00
2023-03-17T04:09:39.452Z,88401.00
2023-03-17T04:10:39.452Z,88405.00
2023-03-17T04:11:39.440Z,88407.00
2023-03-17T04:12:39.437Z,88392.00
2023-03-17T04:13:39.417Z,88393.00
2023-03-17T04:14:39.409Z,88405.00
2023-03-17T04:15:39.414Z,88403.00
2023-03-17T04:16:41.579Z,88390.00
2023-03-17T04:17:39.398Z,88397.00
2023-03-17T04:18:39.486Z,88392.00
2023-03-17T04:19:39.390Z,88397.00
2023-03-17T04:20:39.363Z,88397.00
2023-03-17T04:21:39.357Z,88393.00
2023-03-17T04:22:39.366Z,88390.00
2023-03-17T04:23:39.359Z,88395.00
2023-03-17T04:24:39.357Z,88393.00
2023-03-17T04:25:39.347Z,88393.00
2023-03-17T04:26:39.356Z,88393.00
2023-03-17T04:27:39.329Z,88393.00
2023-03-17T04:28:39.331Z,88384.00
2023-03-17T04:29:39.309Z,88393.00
2023-03-17T04:30:39.311Z,88407.00
2023-03-17T04:31:39.324Z,88393.00
2023-03-17T04:32:39.408Z,88411.00
2023-03-17T04:33:39.296Z,88397.00
2023-03-17T04:34:39.283Z,88403.00
2023-03-17T04:35:39.284Z,88411.00
2023-03-17T04:36:39.273Z,88397.00
2023-03-17T04:37:39.258Z,88405.00
2023-03-17T04:38:39.260Z,88401.00
2023-03-17T04:39:39.245Z,88405.00
2023-03-17T04:40:39.255Z,88407.00
2023-03-17T04:41:39.246Z,88399.00
2023-03-17T04:42:39.239Z,88397.00
2023-03-17T04:43:39.226Z,88399.00
2023-03-17T04:44:39.230Z,88399.00
2023-03-17T04:45:39.259Z,88390.00
2023-03-17T04:46:39.225Z,88393.00
2023-03-17T04:47:39.212Z,88384.00
2023-03-17T04:48:39.217Z,88382.00
2023-03-17T04:49:39.199Z,88388.00
2023-03-17T04:50:39.203Z,88370.00
2023-03-17T04:51:39.193Z,88382.00
2023-03-17T04:52:39.176Z,88386.00
2023-03-17T04:53:39.169Z,88368.00
2023-03-17T04:54:39.178Z,88384.00
2023-03-17T04:55:39.185Z,88368.00
2023-03-17T04:56:39.169Z,88378.00
2023-03-17T04:57:39.168Z,88360.00
2023-03-17T04:58:39.145Z,88378.00
2023-03-17T04:59:39.151Z,88364.00
2023-03-17T05:00:39.145Z,88382.00
2023-03-17T05:01:39.380Z,88374.00
2023-03-17T05:02:39.280Z,88378.00
2023-03-17T05:03:39.124Z,88388.00
2023-03-17T05:04:39.093Z,88378.00
2023-03-17T05:05:39.094Z,88372.00
2023-03-17T05:06:39.090Z,88370.00
2023-03-17T05:07:39.091Z,88382.00
2023-03-17T05:08:39.090Z,88380.00
2023-03-17T05:09:39.064Z,88376.00
2023-03-17T05:10:39.062Z,88384.00
2023-03-17T05:11:39.039Z,88364.00
2023-03-17T05:12:39.037Z,88366.00
2023-03-17T05:13:39.010Z,88364.00
2023-03-17T05:14:39.002Z,88366.00
2023-03-17T05:15:39.001Z,88352.00
2023-03-17T05:16:39.046Z,88374.00
2023-03-17T05:17:38.981Z,88366.00
2023-03-17T05:18:38.963Z,88374.00
2023-03-17T05:19:38.970Z,88372.00
2023-03-17T05:20:38.957Z,88358.00
2023-03-17T05:21:38.947Z,88370.00
2023-03-17T05:22:38.956Z,88370.00
2023-03-17T05:23:38.946Z,88364.00
2023-03-17T05:24:38.922Z,88372.00
2023-03-17T05:25:38.924Z,88370.00
2023-03-17T05:26:38.951Z,88374.00
2023-03-17T05:27:38.914Z,88368.00
2023-03-17T05:28:38.892Z,88380.00
2023-03-17T05:29:38.888Z,88374.00
2023-03-17T05:30:38.921Z,88376.00
2023-03-17T05:31:38.879Z,88380.00
2023-03-17T05:32:38.882Z,88384.00
2023-03-17T05:33:38.847Z,88378.00
2023-03-17T05:34:38.833Z,88362.00
2023-03-17T05:35:38.838Z,88380.00
2023-03-17T05:36:38.859Z,88392.00
2023-03-17T05:37:38.837Z,88395.00
2023-03-17T05:38:38.825Z,88388.00
2023-03-17T05:39:38.834Z,88388.00
2023-03-17T05:40:38.814Z,88397.00
2023-03-17T05:41:38.812Z,88384.00
2023-03-17T05:42:38.810Z,88390.00
2023-03-17T05:43:38.806Z,88390.00
2023-03-17T05:44:38.798Z,88386.00
2023-03-17T05:45:38.790Z,88378.00
2023-03-17T05:46:38.790Z,88386.00
2023-03-17T05:47:38.756Z,88388.00
2023-03-17T05:48:38.750Z,88386.00
2023-03-17T05:49:38.780Z,88388.00
2023-03-17T05:50:38.747Z,88388.00
2023-03-17T05:51:38.749Z,88384.00
2023-03-17T05:52:38.722Z,88378.00
2023-03-17T05:53:38.722Z,88390.00
2023-03-17T05:54:38.717Z,88384.00
2023-03-17T05:55:38.698Z,88380.00
2023-03-17T05:56:38.693Z,88382.00
2023-03-17T05:57:38.692Z,88380.00
2023-03-17T05:58:38.670Z,88397.00
2023-03-17T05:59:38.685Z,88384.00
2023-03-17T06:00:38.666Z,88376.00
2023-03-17T06:01:38.667Z,88388.00
2023-03-17T06:02:38.682Z,88384.00
2023-03-17T06:03:38.738Z,88380.00
2023-03-17T06:04:38.653Z,88378.00
2023-03-17T06:05:38.652Z,88378.00
2023-03-17T06:06:38.647Z,88382.00
2023-03-17T06:07:51.684Z,88382.00
2023-03-17T06:08:39.681Z,88386.00
2023-03-17T06:09:38.641Z,88384.00
2023-03-17T06:10:38.634Z,88386.00
2023-03-17T06:11:38.631Z,88384.00
2023-03-17T06:12:38.629Z,88380.00
2023-03-17T06:13:38.623Z,88393.00
2023-03-17T06:14:38.614Z,88392.00
2023-03-17T06:15:38.640Z,88395.00
2023-03-17T06:16:38.610Z,88403.00
2023-03-17T06:17:38.615Z,88390.00
2023-03-17T06:18:38.596Z,88392.00
2023-03-17T06:19:38.601Z,88366.00
2023-03-17T06:20:38.590Z,88392.00
2023-03-17T06:21:38.600Z,88374.00
2023-03-17T06:22:42.337Z,88376.00
2023-03-17T06:23:39.569Z,88374.00
2023-03-17T06:24:38.564Z,88376.00
2023-03-17T06:25:38.566Z,88372.00
2023-03-17T06:26:38.560Z,88395.00
2023-03-17T06:27:38.549Z,88386.00
2023-03-17T06:28:38.531Z,88376.00
2023-03-17T06:29:38.537Z,88395.00
2023-03-17T06:30:40.627Z,88388.00
2023-03-17T06:31:38.539Z,88382.00
2023-03-17T06:32:38.589Z,88390.00
2023-03-17T06:33:38.526Z,88388.00
2023-03-17T06:34:38.516Z,88395.00
2023-03-17T06:35:38.560Z,88392.00
2023-03-17T06:36:38.666Z,88382.00
2023-03-17T06:37:38.521Z,88384.00
2023-03-17T06:38:38.470Z,88390.00
2023-03-17T06:39:38.524Z,88384.00
2023-03-17T06:40:38.637Z,88388.00
2023-03-17T06:41:38.634Z,88386.00
2023-03-17T06:42:38.693Z,88388.00
2023-03-17T06:43:38.728Z,88376.00
2023-03-17T06:44:38.785Z,88393.00
2023-03-17T06:45:38.878Z,88395.00
2023-03-17T06:46:38.926Z,88390.00
2023-03-17T06:47:38.937Z,88388.00
2023-03-17T06:48:39.024Z,88386.00
2023-03-17T06:49:39.060Z,88386.00
2023-03-17T06:50:39.113Z,88386.00
2023-03-17T06:51:39.159Z,88390.00
2023-03-17T06:52:39.225Z,88395.00
2023-03-17T06:53:39.374Z,88388.00
2023-03-17T06:54:39.325Z,88378.00
2023-03-17T06:55:39.371Z,88393.00
2023-03-17T06:56:39.425Z,88413.00
2023-03-17T06:57:39.501Z,88393.00
2023-03-17T06:58:39.549Z,88393.00
2023-03-17T06:59:39.585Z,88380.00
2023-03-17T07:00:39.654Z,88397.00
2023-03-17T07:01:39.766Z,88378.00
2023-03-17T07:02:39.778Z,88374.00
2023-03-17T07:03:39.816Z,88376.00
2023-03-17T07:04:39.922Z,88366.00
2023-03-17T07:05:39.928Z,88378.00
2023-03-17T07:06:39.981Z,88397.00
2023-03-17T07:07:40.058Z,88392.00
2023-03-17T07:08:40.113Z,88368.00
2023-03-17T07:09:40.164Z,88405.00
2023-03-17T07:10:40.222Z,88360.00
2023-03-17T07:11:40.312Z,88384.00
2023-03-17T07:12:40.349Z,88401.00
2023-03-17T07:13:40.405Z,88382.00
2023-03-17T07:14:40.453Z,88382.00
2023-03-17T07:15:40.501Z,88376.00
2023-03-17T07:16:40.588Z,88388.00
2023-03-17T07:17:40.516Z,88382.00
2023-03-17T07:18:40.489Z,88376.00
2023-03-17T07:19:40.489Z,88386.00
2023-03-17T07:20:40.474Z,88395.00
2023-03-17T07:21:40.473Z,88399.00
2023-03-17T07:22:40.472Z,88393.00
2023-03-17T07:23:41.424Z,88384.00
2023-03-17T07:24:40.439Z,88403.00
2023-03-17T07:25:40.430Z,88403.00
2023-03-17T07:26:40.414Z,88378.00
2023-03-17T07:27:40.418Z,88409.00
2023-03-17T07:28:40.415Z,88393.00
2023-03-17T07:29:40.403Z,88380.00
2023-03-17T07:30:40.396Z,88380.00
2023-03-17T07:31:41.303Z,88388.00
2023-03-17T07:32:40.372Z,88393.00
2023-03-17T07:33:40.326Z,88395.00
2023-03-17T07:34:40.341Z,88386.00
2023-03-17T07:35:40.318Z,88392.00
2023-03-17T07:36:40.299Z,88395.00
2023-03-17T07:37:40.288Z,88392.00
2023-03-17T07:38:40.281Z,88388.00
2023-03-17T07:39:40.266Z,88384.00
2023-03-17T07:40:40.277Z,88376.00
2023-03-17T07:41:40.270Z,88397.00
2023-03-17T07:42:40.232Z,88411.00
2023-03-17T07:43:40.237Z,88386.00
2023-03-17T07:44:40.366Z,88386.00
2023-03-17T07:45:40.240Z,88376.00
2023-03-17T07:46:40.183Z,88407.00
2023-03-17T07:47:40.162Z,88386.00
2023-03-17T07:48:40.160Z,88395.00
2023-03-17T07:49:42.135Z,88374.00
2023-03-17T07:50:40.144Z,88397.00
2023-03-17T07:51:40.132Z,88382.00
2023-03-17T07:52:40.113Z,88401.00
2023-03-17T07:53:40.088Z,88380.00
2023-03-17T07:54:42.755Z,88380.00
2023-03-17T07:55:40.109Z,88370.00
2023-03-17T07:56:40.054Z,88376.00
2023-03-17T07:57:40.134Z,88352.00
2023-03-17T07:58:40.055Z,88382.00
2023-03-17T07:59:40.089Z,88380.00
2023-03-17T08:00:40.031Z,88362.00
2023-03-17T08:01:40.080Z,88376.00
2023-03-17T08:02:40.119Z,88358.00
2023-03-17T08:03:41.453Z,88392.00
2023-03-17T08:04:39.987Z,88368.00
2023-03-17T08:05:39.957Z,88370.00
2023-03-17T08:06:39.960Z,88370.00
2023-03-17T08:07:39.923Z,88386.00
2023-03-17T08:08:39.900Z,88368.00
2023-03-17T08:09:39.904Z,88372.00
2023-03-17T08:10:39.910Z,88368.00
2023-03-17T08:11:39.869Z,88356.00
2023-03-17T08:12:39.860Z,88360.00
2023-03-17T08:13:39.854Z,88370.00
2023-03-17T08:14:39.846Z,88378.00
2023-03-17T08:15:39.836Z,88368.00
2023-03-17T08:16:39.934Z,88362.00
2023-03-17T08:17:39.834Z,88360.00
2023-03-17T08:18:39.785Z,88372.00
2023-03-17T08:19:39.816Z,88362.00
2023-03-17T08:20:39.783Z,88350.00
2023-03-17T08:21:39.784Z,88366.00
2023-03-17T08:22:39.779Z,88370.00
2023-03-17T08:23:39.799Z,88372.00
2023-03-17T08:24:39.779Z,88388.00
2023-03-17T08:25:39.741Z,88368.00
2023-03-17T08:26:39.709Z,88362.00
2023-03-17T08:27:39.679Z,88366.00
2023-03-17T08:28:39.649Z,88366.00
2023-03-17T08:29:39.651Z,88366.00
2023-03-17T08:30:40.180Z,88358.00
2023-03-17T08:31:39.625Z,88370.00
2023-03-17T08:32:39.664Z,88360.00
2023-03-17T08:33:39.568Z,88342.00
2023-03-17T08:34:39.570Z,88346.00
2023-03-17T08:35:39.645Z,88337.00
2023-03-17T08:36:39.552Z,88342.00
2023-03-17T08:37:39.515Z,88346.00
2023-03-17T08:38:39.499Z,88348.00
2023-03-17T08:39:39.484Z,88360.00
2023-03-17T08:40:39.453Z,88350.00
2023-03-17T08:41:39.437Z,88350.00
2023-03-17T08:42:39.422Z,88348.00
2023-03-17T08:43:39.415Z,88354.00
2023-03-17T08:44:39.406Z,88348.00
2023-03-17T08:45:39.409Z,88356.00
2023-03-17T08:46:39.375Z,88368.00
2023-03-17T08:47:39.350Z,88358.00
2023-03-17T08:48:39.348Z,88352.00
2023-03-17T08:49:39.326Z,88348.00
2023-03-17T08:50:39.309Z,88350.00
2023-03-17T08:51:39.294Z,88350.00
2023-03-17T08:52:39.271Z,88338.00
2023-03-17T08:53:39.325Z,88350.00
2023-03-17T08:54:39.222Z,88346.00
2023-03-17T08:55:39.199Z,88370.00
2023-03-17T08:56:39.199Z,88348.00
2023-03-17T08:57:39.169Z,88350.00
2023-03-17T08:58:39.147Z,88346.00
2023-03-17T08:59:39.134Z,88342.00
2023-03-17T09:00:39.094Z,88356.00
2023-03-17T09:01:39.168Z,88340.00
2023-03-17T09:02:39.116Z,88350.00
2023-03-17T09:03:39.035Z,88346.00
2023-03-17T09:04:40.132Z,88327.00
2023-03-17T09:05:39.007Z,88335.00
2023-03-17T09:06:44.086Z,88337.00
2023-03-17T09:07:40.056Z,88327.00
2023-03-17T09:08:38.959Z,88335.00
2023-03-17T09:09:38.912Z,88321.00
2023-03-17T09:10:38.897Z,88327.00
2023-03-17T09:11:38.899Z,88335.00
2023-03-17T09:12:38.854Z,88335.00
2023-03-17T09:13:38.838Z,88327.00
2023-03-17T09:14:43.833Z,88342.00
2023-03-17T09:15:39.984Z,88331.00
2023-03-17T09:16:38.785Z,88329.00
2023-03-17T09:17:38.757Z,88327.00
2023-03-17T09:18:38.726Z,88319.00
2023-03-17T09:19:38.740Z,88337.00
2023-03-17T09:20:38.702Z,88321.00
2023-03-17T09:21:39.431Z,88321.00
2023-03-17T09:22:38.688Z,88327.00
2023-03-17T09:23:38.631Z,88323.00
2023-03-17T09:24:38.604Z,88309.00
2023-03-17T09:25:38.589Z,88327.00
2023-03-17T09:26:38.584Z,88325.00
2023-03-17T09:27:38.525Z,88311.00
2023-03-17T09:28:38.501Z,88321.00
2023-03-17T09:29:38.466Z,88319.00
2023-03-17T09:30:38.483Z,88309.00
2023-03-17T09:31:38.512Z,88311.00
2023-03-17T09:32:38.464Z,88309.00
2023-03-17T09:33:38.380Z,88301.00
2023-03-17T09:34:38.376Z,88305.00
2023-03-17T09:35:38.421Z,88301.00
2023-03-17T09:36:38.357Z,88307.00
2023-03-17T09:37:38.313Z,88303.00
2023-03-17T09:38:38.298Z,88313.00
2023-03-17T09:39:38.276Z,88303.00
2023-03-17T09:40:38.261Z,88291.00
2023-03-17T09:41:38.218Z,88301.00
2023-03-17T09:42:38.212Z,88323.00
2023-03-17T09:43:38.210Z,88311.00
2023-03-17T09:44:38.183Z,88311.00
2023-03-17T09:45:38.162Z,88317.00
2023-03-17T09:46:39.071Z,88303.00
2023-03-17T09:47:38.123Z,88291.00
2023-03-17T09:48:38.115Z,88299.00
2023-03-17T09:49:38.090Z,88303.00
2023-03-17T09:50:38.129Z,88293.00
2023-03-17T09:51:38.080Z,88291.00
2023-03-17T09:52:38.058Z,88299.00
2023-03-17T09:53:39.439Z,88299.00
2023-03-17T09:54:38.964Z,88299.00
2023-03-17T09:55:38.005Z,88287.00
2023-03-17T09:56:38.013Z,88291.00
2023-03-17T09:57:37.991Z,88293.00
2023-03-17T09:58:37.967Z,88291.00
2023-03-17T09:59:37.946Z,88291.00
2023-03-17T10:00:37.925Z,88291.00
2023-03-17T10:01:38.003Z,88278.00
2023-03-17T10:02:37.906Z,88287.00
2023-03-17T10:03:38.439Z,88303.00
2023-03-17T10:04:37.876Z,88295.00
2023-03-17T10:05:37.897Z,88286.00
2023-03-17T10:06:37.882Z,88278.00
2023-03-17T10:07:37.860Z,88278.00
2023-03-17T10:08:37.859Z,88286.00
2023-03-17T10:09:37.846Z,88282.00
2023-03-17T10:10:37.838Z,88284.00
2023-03-17T10:11:37.830Z,88291.00
2023-03-17T10:12:37.830Z,88289.00
2023-03-17T10:13:37.802Z,88289.00
2023-03-17T10:14:37.799Z,88289.00
2023-03-17T10:15:37.795Z,88270.00
2023-03-17T10:16:37.825Z,88278.00
2023-03-17T10:17:37.828Z,88293.00
2023-03-17T10:18:37.777Z,88274.00
2023-03-17T10:19:37.796Z,88289.00
2023-03-17T10:20:37.744Z,88284.00
2023-03-17T10:21:37.746Z,88262.00
2023-03-17T10:22:37.772Z,88287.00
2023-03-17T10:23:37.735Z,88282.00
2023-03-17T10:24:37.723Z,88268.00
2023-03-17T10:25:37.750Z,88276.00
2023-03-17T10:26:37.739Z,88276.00
2023-03-17T10:27:37.723Z,88268.00
2023-03-17T10:28:37.710Z,88278.00
2023-03-17T10:29:37.719Z,88272.00
2023-03-17T10:30:37.753Z,88278.00
2023-03-17T10:31:37.769Z,88274.00
2023-03-17T10:32:37.818Z,88256.00
2023-03-17T10:33:37.754Z,88272.00
2023-03-17T10:34:38.208Z,88266.00
2023-03-17T10:35:37.758Z,88270.00
2023-03-17T10:36:37.760Z,88274.00
2023-03-17T10:37:37.733Z,88276.00
2023-03-17T10:38:37.738Z,88268.00
2023-03-17T10:39:37.728Z,88282.00
2023-03-17T10:40:37.716Z,88262.00
2023-03-17T10:41:37.733Z,88268.00
2023-03-17T10:42:37.732Z,88268.00
2023-03-17T10:43:37.718Z,88264.00
2023-03-17T10:44:37.734Z,88256.00
2023-03-17T10:45:40.026Z,88274.00
2023-03-17T10:46:37.799Z,88274.00
2023-03-17T10:47:37.794Z,88266.00
2023-03-17T10:48:37.744Z,88268.00
2023-03-17T10:49:37.805Z,88264.00
2023-03-17T10:50:37.728Z,88272.00
2023-03-17T10:51:37.731Z,88272.00
2023-03-17T10:52:37.738Z,88266.00
2023-03-17T10:53:37.740Z,88258.00
2023-03-17T10:54:37.718Z,88262.00
2023-03-17T10:55:37.748Z,88260.00
2023-03-17T10:56:37.718Z,88256.00
2023-03-17T10:57:37.752Z,88280.00
2023-03-17T10:58:37.764Z,88256.00
2023-03-17T10:59:37.681Z,88238.00
2023-03-17T11:00:37.816Z,88240.00
2023-03-17T11:01:37.666Z,88250.00
2023-03-17T11:02:37.672Z,88262.00
2023-03-17T11:03:37.660Z,88252.00
2023-03-17T11:04:37.651Z,88258.00
2023-03-17T11:05:39.011Z,88260.00
2023-03-17T11:06:37.610Z,88246.00
2023-03-17T11:07:37.612Z,88246.00
2023-03-17T11:08:37.584Z,88254.00
2023-03-17T11:09:37.582Z,88246.00
2023-03-17T11:10:37.576Z,88244.00
2023-03-17T11:11:37.580Z,88248.00
2023-03-17T11:12:37.591Z,88240.00
2023-03-17T11:13:37.556Z,88244.00
2023-03-17T11:14:37.538Z,88244.00
2023-03-17T11:15:37.526Z,88244.00
2023-03-17T11:16:37.539Z,88240.00
2023-03-17T11:17:37.469Z,88242.00
2023-03-17T11:18:37.500Z,88236.00
2023-03-17T11:19:37.464Z,88227.00
2023-03-17T11:20:37.449Z,88235.00
2023-03-17T11:21:37.466Z,88238.00
2023-03-17T11:22:37.429Z,88231.00
2023-03-17T11:23:37.440Z,88233.00
2023-03-17T11:24:37.408Z,88221.00
2023-03-17T11:25:37.388Z,88225.00
2023-03-17T11:26:37.373Z,88223.00
2023-03-17T11:27:37.363Z,88223.00
2023-03-17T11:28:37.347Z,88206.00
2023-03-17T11:29:37.464Z,88223.00
2023-03-17T11:30:37.349Z,88223.00
2023-03-17T11:31:37.401Z,88206.00
2023-03-17T11:32:37.399Z,88221.00
2023-03-17T11:33:37.324Z,88217.00
2023-03-17T11:34:37.321Z,88213.00
2023-03-17T11:35:37.349Z,88194.00
2023-03-17T11:36:37.321Z,88196.00
2023-03-17T11:37:37.294Z,88217.00
2023-03-17T11:38:37.289Z,88204.00
2023-03-17T11:39:37.265Z,88198.00
2023-03-17T11:40:37.261Z,88219.00
2023-03-17T11:41:37.262Z,88194.00
2023-03-17T11:42:37.238Z,88198.00
2023-03-17T11:43:37.326Z,88196.00
2023-03-17T11:44:37.221Z,88188.00
2023-03-17T11:45:37.287Z,88192.00
2023-03-17T11:46:37.216Z,88190.00
2023-03-17T11:47:37.653Z,88190.00
2023-03-17T11:48:37.220Z,88182.00
2023-03-17T11:49:37.183Z,88184.00
2023-03-17T11:50:37.172Z,88172.00
2023-03-17T11:51:37.152Z,88178.00
2023-03-17T11:52:37.173Z,88190.00
2023-03-17T11:53:37.155Z,88176.00
2023-03-17T11:54:37.159Z,88180.00
2023-03-17T11:55:37.167Z,88182.00
2023-03-17T11:56:37.169Z,88186.00
2023-03-17T11:57:37.158Z,88188.00
2023-03-17T11:58:37.176Z,88188.00
2023-03-17T11:59:37.173Z,88190.00
2023-03-17T12:00:37.171Z,88174.00
2023-03-17T12:01:37.183Z,88180.00
2023-03-17T12:02:37.197Z,88169.00
2023-03-17T12:03:37.236Z,88172.00
2023-03-17T12:04:58.188Z,88186.00
2023-03-17T12:05:37.159Z,88176.00
2023-03-17T12:06:37.183Z,88186.00
2023-03-17T12:07:37.176Z,88180.00
2023-03-17T12:08:37.178Z,88178.00
2023-03-17T12:09:37.173Z,88176.00
2023-03-17T12:10:37.191Z,88178.00
2023-03-17T12:11:37.160Z,88186.00
2023-03-17T12:12:37.151Z,88182.00
2023-03-17T12:13:37.153Z,88190.00
2023-03-17T12:14:37.147Z,88180.00
2023-03-17T12:15:38.678Z,88171.00
2023-03-17T12:16:37.120Z,88172.00
2023-03-17T12:17:37.111Z,88174.00
2023-03-17T12:18:37.098Z,88172.00
2023-03-17T12:19:37.107Z,88182.00
2023-03-17T12:20:37.054Z,88178.00
2023-03-17T12:21:37.128Z,88180.00
2023-03-17T12:22:37.066Z,88171.00
2023-03-17T12:23:37.031Z,88169.00
2023-03-17T12:24:37.043Z,88172.00
2023-03-17T12:25:37.039Z,88172.00
2023-03-17T12:26:37.036Z,88182.00
2023-03-17T12:27:36.999Z,88176.00
2023-03-17T12:28:37.057Z,88165.00
2023-03-17T12:29:37.008Z,88159.00
2023-03-17T12:30:36.998Z,88174.00
2023-03-17T12:31:37.001Z,88171.00
2023-03-17T12:32:37.060Z,88171.00
2023-03-17T12:33:36.976Z,88165.00
2023-03-17T12:34:36.994Z,88165.00
2023-03-17T12:35:37.005Z,88169.00
2023-03-17T12:36:36.938Z,88174.00
2023-03-17T12:37:36.928Z,88174.00
2023-03-17T12:38:36.925Z,88157.00
2023-03-17T12:39:36.920Z,88159.00
2023-03-17T12:40:36.917Z,88153.00
2023-03-17T12:41:36.914Z,88145.00
2023-03-17T12:42:36.911Z,88153.00
2023-03-17T12:43:36.888Z,88161.00
2023-03-17T12:44:36.893Z,88151.00
2023-03-17T12:45:36.885Z,88172.00
2023-03-17T12:46:36.944Z,88159.00
2023-03-17T12:47:36.898Z,88163.00
2023-03-17T12:48:36.895Z,88149.00
2023-03-17T12:49:36.894Z,88174.00
2023-03-17T12:50:36.873Z,88149.00
2023-03-17T12:51:38.578Z,88157.00
2023-03-17T12:52:36.875Z,88145.00
2023-03-17T12:53:36.861Z,88151.00
2023-03-17T12:54:36.849Z,88153.00
2023-03-17T12:55:36.840Z,88159.00
2023-03-17T12:56:36.831Z,88161.00
2023-03-17T12:57:36.805Z,88147.00
2023-03-17T12:58:36.825Z,88145.00
2023-03-17T12:59:36.999Z,88147.00
2023-03-17T13:00:36.801Z,88149.00
2023-03-17T13:01:36.791Z,88155.00
2023-03-17T13:02:36.754Z,88137.00
2023-03-17T13:03:36.912Z,88135.00
2023-03-17T13:04:36.761Z,88135.00
2023-03-17T13:05:36.719Z,88141.00
2023-03-17T13:06:36.705Z,88143.00
2023-03-17T13:07:36.685Z,88143.00
2023-03-17T13:08:36.693Z,88135.00
2023-03-17T13:09:36.697Z,88139.00
2023-03-17T13:10:36.695Z,88143.00
2023-03-17T13:11:36.682Z,88143.00
2023-03-17T13:12:36.685Z,88145.00
2023-03-17T13:13:36.690Z,88143.00
2023-03-17T13:14:36.654Z,88129.00
2023-03-17T13:15:36.629Z,88137.00
2023-03-17T13:16:36.722Z,88129.00
2023-03-17T13:17:36.601Z,88129.00
2023-03-17T13:18:36.618Z,88141.00
2023-03-17T13:19:36.583Z,88137.00
2023-03-17T13:20:36.558Z,88125.00
2023-03-17T13:21:36.641Z,88125.00
2023-03-17T13:22:36.520Z,88135.00
2023-03-17T13:23:36.492Z,88121.00
2023-03-17T13:24:36.488Z,88125.00
2023-03-17T13:25:36.450Z,88127.00
2023-03-17T13:26:36.445Z,88127.00
2023-03-17T13:27:36.415Z,88123.00
2023-03-17T13:28:36.400Z,88120.00
2023-03-17T13:29:36.397Z,88127.00
2023-03-17T13:30:36.378Z,88127.00
2023-03-17T13:31:36.440Z,88120.00
2023-03-17T13:32:36.378Z,88131.00
2023-03-17T13:33:36.321Z,88129.00
2023-03-17T13:34:36.307Z,88129.00
2023-03-17T13:35:36.315Z,88135.00
2023-03-17T13:36:36.278Z,88135.00
2023-03-17T13:37:36.265Z,88131.00
2023-03-17T13:38:36.232Z,88127.00
2023-03-17T13:39:36.222Z,88120.00
2023-03-17T13:40:36.232Z,88121.00
2023-03-17T13:41:36.203Z,88125.00
2023-03-17T13:42:36.168Z,88120.00
2023-03-17T13:43:36.159Z,88121.00
2023-03-17T13:44:36.140Z,88123.00
2023-03-17T13:45:36.110Z,88116.00
2023-03-17T13:46:36.089Z,88116.00
2023-03-17T13:47:36.074Z,88121.00
2023-03-17T13:48:36.036Z,88120.00
2023-03-17T13:49:36.012Z,88112.00
2023-03-17T13:50:36.013Z,88118.00
2023-03-17T13:51:36.001Z,88110.00
2023-03-17T13:52:35.947Z,88114.00
2023-03-17T13:53:35.920Z,88125.00
2023-03-17T13:54:35.907Z,88118.00
2023-03-17T13:55:35.961Z,88114.00
2023-03-17T13:56:35.850Z,88118.00
2023-03-17T13:57:35.835Z,88104.00
2023-03-17T13:58:35.836Z,88112.00
2023-03-17T13:59:35.800Z,88114.00
2023-03-17T14:00:35.837Z,88116.00
2023-03-17T14:01:35.763Z,88116.00
2023-03-17T14:02:35.745Z,88112.00
2023-03-17T14:03:35.778Z,88108.00
2023-03-17T14:04:35.706Z,88112.00
2023-03-17T14:05:35.711Z,88118.00
2023-03-17T14:06:35.668Z,88114.00
2023-03-17T14:07:35.646Z,88127.00
2023-03-17T14:08:35.644Z,88123.00
2023-03-17T14:09:35.612Z,88116.00
2023-03-17T14:10:35.604Z,88121.00
2023-03-17T14:11:35.575Z,88123.00
2023-03-17T14:12:35.573Z,88127.00
2023-03-17T14:13:35.532Z,88127.00
2023-03-17T14:14:35.509Z,88123.00
2023-03-17T14:15:35.485Z,88123.00
2023-03-17T14:16:35.492Z,88120.00
2023-03-17T14:17:35.461Z,88116.00
2023-03-17T14:18:35.407Z,88118.00
2023-03-17T14:19:35.382Z,88112.00
2023-03-17T14:20:35.377Z,88116.00
2023-03-17T14:21:35.324Z,88114.00
2023-03-17T14:22:35.312Z,88120.00
2023-03-17T14:23:35.283Z,88118.00
2023-03-17T14:24:35.260Z,88120.00
2023-03-17T14:25:35.237Z,88118.00
2023-03-17T14:26:35.215Z,88120.00
2023-03-17T14:27:35.194Z,88120.00
2023-03-17T14:28:35.166Z,88114.00
2023-03-17T14:29:35.139Z,88116.00
2023-03-17T14:30:35.146Z,88116.00
2023-03-17T14:31:35.160Z,88114.00
2023-03-17T14:32:35.133Z,88112.00